Terminal Aerodrome Forecast
Issued by NWS

Home | Current Version | Previous Version | Text Only | Print | Product List | Glossary On
Versions: 1 2 3 4 5 6 7 8 9 10 11 12 13 14 15 16 17 18 19 20 21 22 23 24 25 26 27
627
FTUS45 KSLC 181740
TAFEVW
TAF
KEVW 181740Z 1818/1918 21007KT P6SM SCT200
     FM190300 19006KT P6SM SCT100 BKN200
     FM191200 21008KT P6SM VCSH SCT040 BKN080
     FM191600 23009KT 2SM -SHSN SCT009 BKN020=

USA.gov is the U.S. government's official web portal to all federal, state and local government web resources and services.